Time;durP1;ratioP1;P1;durP2;ratioP2;P2;SDS_P1;SDS_P2;PMS_P1;PMS_P2;Temp;Humidity;BMP_temperature;BMP_pressure;BME280_temperature;BME280_humidity;BME280_pressure;Samples;Min_cycle;Max_cycle;Signal;HPM_P1;HPM_P2
2023/12/11 00:00:14;;;;;;;29.83;14.20;;;0.00;99.90;;;;;;5093796;28;20481;-63
2023/12/11 00:02:39;;;;;;;35.65;15.07;;;-0.10;99.90;;;;;;5094810;28;20476;-63
2023/12/11 00:05:05;;;;;;;30.98;15.73;;;-0.10;99.90;;;;;;5095004;28;20457;-63
2023/12/11 00:07:31;;;;;;;31.85;14.13;;;-0.20;99.90;;;;;;5095212;28;20023;-63
2023/12/11 00:09:56;;;;;;;30.85;12.75;;;-0.20;99.90;;;;;;5094607;28;20106;-63
2023/12/11 00:12:22;;;;;;;35.40;13.13;;;-0.20;99.90;;;;;;5093733;28;20020;-63
2023/12/11 00:14:48;;;;;;;31.15;14.23;;;-0.20;99.90;;;;;;5093432;28;20032;-63
2023/12/11 00:17:14;;;;;;;32.47;15.10;;;-0.20;99.90;;;;;;5093447;28;20169;-63
2023/12/11 00:19:39;;;;;;;33.58;15.07;;;-0.20;99.90;;;;;;5094476;28;20047;-63
2023/12/11 00:22:05;;;;;;;30.00;15.10;;;-0.20;99.90;;;;;;5093126;28;20492;-63
2023/12/11 00:24:31;;;;;;;36.92;16.10;;;-0.10;99.90;;;;;;5094451;28;20052;-63
2023/12/11 00:26:56;;;;;;;31.92;15.13;;;-0.10;99.90;;;;;;5093388;28;20024;-63
2023/12/11 00:29:22;;;;;;;33.13;16.42;;;-0.10;99.90;;;;;;5094574;28;20027;-63
2023/12/11 00:31:48;;;;;;;28.25;14.73;;;0.00;99.90;;;;;;5094466;28;20024;-63
2023/12/11 00:34:14;;;;;;;22.40;10.98;;;0.10;99.90;;;;;;5094138;28;20036;-63
2023/12/11 00:36:42;;;;;;;29.67;11.48;;;0.10;99.90;;;;;;5094237;28;20507;-63
2023/12/11 00:39:08;;;;;;;23.55;12.02;;;0.20;99.90;;;;;;5094472;28;20035;-63
2023/12/11 00:41:33;;;;;;;18.83;11.05;;;0.20;99.90;;;;;;5093154;28;20032;-63
2023/12/11 00:43:59;;;;;;;30.05;13.02;;;0.30;99.90;;;;;;5093656;28;20362;-63
2023/12/11 00:46:25;;;;;;;21.30;13.52;;;0.40;99.90;;;;;;5094260;28;20093;-63
2023/12/11 00:48:51;;;;;;;33.05;15.23;;;0.40;99.90;;;;;;5093528;28;20153;-63
2023/12/11 00:51:18;;;;;;;32.08;14.20;;;0.50;99.90;;;;;;5094222;28;20433;-63
2023/12/11 00:53:45;;;;;;;22.83;11.52;;;0.50;99.90;;;;;;5093819;28;20024;-63
2023/12/11 00:56:11;;;;;;;22.13;10.98;;;0.50;99.90;;;;;;5093071;28;20071;-63
2023/12/11 00:58:36;;;;;;;24.02;13.77;;;0.60;99.90;;;;;;5093980;28;20481;-63
2023/12/11 01:01:02;;;;;;;31.33;13.52;;;0.60;99.90;;;;;;5094175;28;20368;-63
2023/12/11 01:03:28;;;;;;;28.88;13.25;;;0.60;99.90;;;;;;5094037;28;20373;-63
2023/12/11 01:05:53;;;;;;;31.35;12.77;;;0.60;99.90;;;;;;5094030;28;20028;-63
2023/12/11 01:08:19;;;;;;;30.95;12.85;;;0.60;99.90;;;;;;5094313;28;20462;-63
2023/12/11 01:10:45;;;;;;;24.52;12.45;;;0.60;99.90;;;;;;5093678;28;20539;-63
2023/12/11 01:13:10;;;;;;;25.13;11.55;;;0.60;99.90;;;;;;5093628;28;20038;-63
2023/12/11 01:15:36;;;;;;;21.75;12.43;;;0.70;99.90;;;;;;5094034;28;20377;-63
2023/12/11 01:18:02;;;;;;;29.27;13.27;;;0.70;99.90;;;;;;5093961;28;20050;-63
2023/12/11 01:20:27;;;;;;;25.15;12.07;;;0.70;99.90;;;;;;5092963;28;20081;-63
2023/12/11 01:22:53;;;;;;;28.67;11.68;;;0.70;99.90;;;;;;5093927;28;20024;-63
2023/12/11 01:25:19;;;;;;;22.58;11.93;;;0.70;99.90;;;;;;5093447;28;20066;-62
2023/12/11 01:27:44;;;;;;;28.73;11.20;;;0.70;99.90;;;;;;5094079;28;20063;-63
2023/12/11 01:30:10;;;;;;;25.80;11.70;;;0.70;99.90;;;;;;5093773;28;20404;-63
2023/12/11 01:32:36;;;;;;;21.42;11.27;;;0.80;99.90;;;;;;5093798;28;20031;-63
2023/12/11 01:35:02;;;;;;;23.08;10.82;;;0.80;99.90;;;;;;5092560;28;20481;-63
2023/12/11 01:37:27;;;;;;;25.77;12.18;;;0.90;99.90;;;;;;5093743;28;20032;-64
2023/12/11 01:39:53;;;;;;;29.23;10.45;;;0.90;99.90;;;;;;5092600;28;20165;-63
2023/12/11 01:42:19;;;;;;;24.85;9.40;;;0.90;99.90;;;;;;5093731;28;20064;-63
2023/12/11 01:44:44;;;;;;;25.90;11.10;;;0.90;99.90;;;;;;5092831;28;20024;-63
2023/12/11 01:47:10;;;;;;;23.77;11.35;;;0.90;99.90;;;;;;5093512;28;20455;-63
2023/12/11 01:49:37;;;;;;;23.63;11.13;;;1.00;99.90;;;;;;5092321;28;20405;-63
2023/12/11 01:52:03;;;;;;;25.92;11.20;;;1.00;99.90;;;;;;5092531;28;20115;-63
2023/12/11 01:54:30;;;;;;;23.65;11.65;;;1.00;99.90;;;;;;5093478;28;20040;-63
2023/12/11 01:56:56;;;;;;;22.85;10.98;;;1.00;99.90;;;;;;5095298;28;20103;-63
2023/12/11 01:59:22;;;;;;;25.00;12.35;;;1.00;99.90;;;;;;5096917;28;20104;-63
2023/12/11 02:01:49;;;;;;;18.42;10.45;;;1.00;99.90;;;;;;5097141;28;20366;-63
2023/12/11 02:04:15;;;;;;;23.70;11.02;;;1.10;99.90;;;;;;5097137;28;20028;-63
2023/12/11 02:06:41;;;;;;;21.50;11.13;;;1.10;99.90;;;;;;5097583;28;20020;-63
2023/12/11 02:09:08;;;;;;;24.23;11.27;;;1.10;99.90;;;;;;5097054;28;20024;-63
2023/12/11 02:11:34;;;;;;;21.70;11.63;;;1.10;99.90;;;;;;5095950;28;20380;-63
2023/12/11 02:13:59;;;;;;;19.75;11.10;;;1.10;99.90;;;;;;5097099;28;20032;-63
2023/12/11 02:16:25;;;;;;;28.70;13.18;;;1.10;99.90;;;;;;5097127;28;20024;-63
2023/12/11 02:18:51;;;;;;;25.48;12.50;;;1.10;99.90;;;;;;5097228;28;20037;-63
2023/12/11 02:21:17;;;;;;;24.98;12.88;;;1.10;99.90;;;;;;5097098;28;20028;-63
2023/12/11 02:24:01;;;;;;;24.90;11.80;;;1.10;99.90;;;;;;5096916;28;20446;-63
2023/12/11 02:26:27;;;;;;;26.65;11.38;;;1.10;99.90;;;;;;5095680;28;20091;-64
2023/12/11 02:28:53;;;;;;;25.30;12.13;;;1.20;99.90;;;;;;5096603;28;20024;-63
2023/12/11 02:31:18;;;;;;;21.50;11.65;;;1.20;99.90;;;;;;5097099;28;20028;-63
2023/12/11 02:33:44;;;;;;;24.73;13.00;;;1.20;99.90;;;;;;5095412;28;20059;-63
2023/12/11 02:36:10;;;;;;;26.58;12.25;;;1.30;99.90;;;;;;5095464;28;20119;-65
2023/12/11 02:38:36;;;;;;;24.35;13.65;;;1.30;99.90;;;;;;5096658;28;20089;-63
2023/12/11 02:41:02;;;;;;;25.67;12.57;;;1.30;99.90;;;;;;5096705;28;20484;-63
2023/12/11 02:43:27;;;;;;;26.27;13.00;;;1.30;99.90;;;;;;5096885;28;20377;-63
2023/12/11 02:45:53;;;;;;;25.42;12.77;;;1.40;99.90;;;;;;5097552;28;20035;-64
2023/12/11 02:48:19;;;;;;;24.85;12.15;;;1.40;99.90;;;;;;5097315;28;20055;-64
2023/12/11 02:50:45;;;;;;;26.05;12.57;;;1.40;99.90;;;;;;5097321;28;20024;-63
2023/12/11 02:53:11;;;;;;;27.98;13.57;;;1.40;99.90;;;;;;5095711;28;20089;-64
2023/12/11 02:55:36;;;;;;;26.15;11.57;;;1.40;99.90;;;;;;5096701;28;20085;-63
2023/12/11 02:58:03;;;;;;;27.67;12.20;;;1.50;99.90;;;;;;5095833;28;20031;-63
2023/12/11 03:00:29;;;;;;;25.30;11.60;;;1.50;99.90;;;;;;5096539;28;20032;-63
2023/12/11 03:02:56;;;;;;;29.85;11.48;;;1.50;99.90;;;;;;5095279;28;20028;-64
2023/12/11 03:05:22;;;;;;;22.23;11.63;;;1.50;99.90;;;;;;5096583;28;20028;-63
2023/12/11 03:07:48;;;;;;;24.92;11.38;;;1.50;99.90;;;;;;5094743;28;20028;-63
2023/12/11 03:10:13;;;;;;;25.95;10.70;;;1.50;99.90;;;;;;5095996;28;20027;-64
2023/12/11 03:12:39;;;;;;;20.00;10.32;;;1.60;99.90;;;;;;5095959;28;20069;-63
2023/12/11 03:15:06;;;;;;;21.08;10.20;;;1.60;99.90;;;;;;5094413;28;20130;-63
2023/12/11 03:17:32;;;;;;;23.23;9.40;;;1.60;99.90;;;;;;5097301;28;20024;-63
2023/12/11 03:20:01;;;;;;;24.92;10.20;;;1.60;99.90;;;;;;5097075;28;20090;-63
2023/12/11 03:22:27;;;;;;;21.60;8.70;;;1.60;99.90;;;;;;5096530;28;20028;-63
2023/12/11 03:24:53;;;;;;;19.52;8.75;;;1.60;99.90;;;;;;5094367;28;20056;-63
2023/12/11 03:27:20;;;;;;;22.90;9.20;;;1.60;99.90;;;;;;5094555;28;20032;-63
2023/12/11 03:29:46;;;;;;;19.08;9.63;;;1.60;99.90;;;;;;5094488;28;20028;-63
2023/12/11 03:32:11;;;;;;;15.48;7.40;;;1.60;99.90;;;;;;5095993;28;20030;-64
2023/12/11 03:34:37;;;;;;;17.20;8.77;;;1.60;99.90;;;;;;5094267;28;20043;-63
2023/12/11 03:37:03;;;;;;;18.45;8.45;;;1.60;99.90;;;;;;5095638;28;20020;-64
2023/12/11 03:39:29;;;;;;;24.83;10.15;;;1.60;99.90;;;;;;5095602;28;20515;-63
2023/12/11 03:41:56;;;;;;;24.70;11.35;;;1.60;99.90;;;;;;5095587;28;20104;-63
2023/12/11 03:44:21;;;;;;;29.42;10.38;;;1.60;99.90;;;;;;5095426;28;20407;-63
2023/12/11 03:46:47;;;;;;;24.95;10.68;;;1.70;99.90;;;;;;5094289;28;20020;-63
2023/12/11 03:49:16;;;;;;;24.70;10.23;;;1.60;99.90;;;;;;5095493;28;20396;-63
2023/12/11 03:51:43;;;;;;;28.08;11.18;;;1.60;99.90;;;;;;5095754;28;20047;-63
2023/12/11 03:54:09;;;;;;;20.05;9.30;;;1.60;99.90;;;;;;5093948;28;20028;-63
2023/12/11 03:56:34;;;;;;;21.05;8.95;;;1.60;99.90;;;;;;5093951;28;20027;-65
2023/12/11 03:59:00;;;;;;;23.27;10.07;;;1.70;99.90;;;;;;5095005;28;20027;-63
2023/12/11 04:01:26;;;;;;;27.73;10.13;;;1.60;99.90;;;;;;5095452;28;20099;-64
2023/12/11 04:03:51;;;;;;;26.95;11.15;;;1.60;99.90;;;;;;5095092;28;20072;-63
2023/12/11 04:06:17;;;;;;;24.67;9.98;;;1.60;99.90;;;;;;5095248;28;20020;-63
2023/12/11 04:08:43;;;;;;;21.30;9.82;;;1.60;99.90;;;;;;5095005;28;20128;-63
2023/12/11 04:11:09;;;;;;;26.50;9.95;;;1.60;99.90;;;;;;5095222;28;20032;-63
2023/12/11 04:13:35;;;;;;;26.17;10.40;;;1.60;99.90;;;;;;5094637;28;20028;-63
2023/12/11 04:16:03;;;;;;;23.17;10.52;;;1.60;99.90;;;;;;5094738;28;20389;-63
2023/12/11 04:18:32;;;;;;;24.58;10.52;;;1.60;99.90;;;;;;5093578;28;20035;-63
2023/12/11 04:20:57;;;;;;;21.67;9.95;;;1.60;99.90;;;;;;5095121;28;20465;-63
2023/12/11 04:23:23;;;;;;;22.77;11.23;;;1.60;99.90;;;;;;5094255;28;20050;-63
2023/12/11 04:25:49;;;;;;;24.52;10.43;;;1.50;99.90;;;;;;5094909;28;20380;-63
2023/12/11 04:28:15;;;;;;;24.33;10.90;;;1.50;99.90;;;;;;5093479;28;20024;-63
2023/12/11 04:30:41;;;;;;;26.90;11.05;;;1.50;99.90;;;;;;5094274;28;20103;-63
2023/12/11 04:33:06;;;;;;;19.30;11.60;;;1.50;99.90;;;;;;5094526;28;20024;-63
2023/12/11 04:35:32;;;;;;;18.83;11.00;;;1.50;99.90;;;;;;5094571;28;20028;-63
2023/12/11 04:37:58;;;;;;;21.95;11.45;;;1.50;99.90;;;;;;5094299;28;20545;-63
2023/12/11 04:40:24;;;;;;;35.97;11.82;;;1.50;99.90;;;;;;5094880;28;20103;-63
2023/12/11 04:42:49;;;;;;;23.63;11.20;;;1.50;99.90;;;;;;5093041;28;20032;-63
2023/12/11 04:45:15;;;;;;;30.23;11.93;;;1.40;99.90;;;;;;5094045;28;20039;-63
2023/12/11 04:47:41;;;;;;;28.17;11.00;;;1.40;99.90;;;;;;5093005;28;20165;-63
2023/12/11 04:50:06;;;;;;;30.20;11.00;;;1.40;99.90;;;;;;5092982;28;20077;-63
2023/12/11 04:52:32;;;;;;;32.08;11.27;;;1.40;99.90;;;;;;5094341;28;20026;-63
2023/12/11 04:54:58;;;;;;;28.15;10.57;;;1.40;99.90;;;;;;5094153;28;20469;-63
2023/12/11 04:57:23;;;;;;;36.80;11.95;;;1.40;99.90;;;;;;5094165;28;20106;-63
2023/12/11 04:59:49;;;;;;;23.42;11.43;;;1.30;99.90;;;;;;5092823;28;20032;-63
2023/12/11 05:02:15;;;;;;;23.83;11.40;;;1.30;99.90;;;;;;5094154;28;20050;-63
2023/12/11 05:04:41;;;;;;;33.22;12.40;;;1.30;99.90;;;;;;5094460;28;20099;-63
2023/12/11 05:07:06;;;;;;;24.30;12.32;;;1.30;99.90;;;;;;5094039;28;20020;-63
2023/12/11 05:09:32;;;;;;;24.65;13.38;;;1.30;99.90;;;;;;5092935;28;20059;-63
2023/12/11 05:11:58;;;;;;;40.80;12.80;;;1.30;99.90;;;;;;5092633;28;20140;-63
2023/12/11 05:14:23;;;;;;;32.10;11.98;;;1.30;99.90;;;;;;5094053;28;20093;-64
2023/12/11 05:16:49;;;;;;;30.77;11.52;;;1.30;99.90;;;;;;5093884;28;20028;-63
2023/12/11 05:19:15;;;;;;;31.67;11.02;;;1.30;99.90;;;;;;5092628;28;20042;-63
2023/12/11 05:21:44;;;;;;;23.17;10.93;;;1.30;99.90;;;;;;5106358;28;20040;-63
2023/12/11 05:24:11;;;;;;;25.17;11.23;;;1.30;99.90;;;;;;5112736;28;20096;-63
2023/12/11 05:26:37;;;;;;;22.98;11.60;;;1.30;99.90;;;;;;5113951;28;20027;-63
2023/12/11 05:29:04;;;;;;;27.70;13.50;;;1.40;99.90;;;;;;5112825;28;20019;-63
2023/12/11 05:31:30;;;;;;;27.95;14.07;;;1.40;99.90;;;;;;5116743;28;20038;-63
2023/12/11 05:33:56;;;;;;;22.55;10.43;;;1.40;99.90;;;;;;5118834;28;20031;-68
2023/12/11 05:36:21;;;;;;;37.45;12.60;;;1.40;99.90;;;;;;5117028;28;20115;-69
2023/12/11 05:38:47;;;;;;;31.67;13.00;;;1.40;99.90;;;;;;5118725;28;20026;-69
2023/12/11 05:41:13;;;;;;;28.40;10.93;;;2.60;99.90;;;;;;5100946;28;20031;-71
2023/12/11 05:43:39;;;;;;;32.78;11.10;;;1.50;99.90;;;;;;5118078;28;20384;-65
2023/12/11 05:46:06;;;;;;;42.88;11.77;;;1.50;99.90;;;;;;5118387;28;20023;-65
2023/12/11 05:48:31;;;;;;;26.30;11.43;;;1.60;99.90;;;;;;5118450;28;20030;-64
2023/12/11 05:50:57;;;;;;;22.90;12.13;;;1.60;99.90;;;;;;5118266;28;20024;-64
2023/12/11 05:53:23;;;;;;;31.15;14.65;;;1.60;99.90;;;;;;5118040;28;20484;-64
2023/12/11 05:55:49;;;;;;;25.92;13.93;;;1.60;99.90;;;;;;5118167;28;20035;-64
2023/12/11 05:58:14;;;;;;;30.67;12.75;;;1.60;99.90;;;;;;5117044;28;20055;-64
2023/12/11 06:00:40;;;;;;;29.10;12.27;;;1.60;99.90;;;;;;5117322;28;20055;-65
2023/12/11 06:03:05;;;;;;;31.25;12.18;;;1.60;99.90;;;;;;5116963;28;20068;-65
2023/12/11 06:05:31;;;;;;;37.63;12.05;;;1.60;99.90;;;;;;5118132;28;20453;-65
2023/12/11 06:07:57;;;;;;;27.80;12.25;;;1.70;99.90;;;;;;5117746;28;20376;-64
2023/12/11 06:10:23;;;;;;;24.58;12.13;;;1.70;99.90;;;;;;5117616;28;20032;-64
2023/12/11 06:12:48;;;;;;;28.38;11.32;;;1.70;99.90;;;;;;5117624;28;20487;-64
2023/12/11 06:15:14;;;;;;;26.17;12.70;;;1.70;99.90;;;;;;5117626;27;20108;-65
2023/12/11 06:17:40;;;;;;;30.17;13.75;;;1.70;99.90;;;;;;5117557;28;20399;-64
2023/12/11 06:20:06;;;;;;;32.03;15.23;;;1.80;99.90;;;;;;5117828;28;20023;-65
2023/12/11 06:22:32;;;;;;;29.77;14.95;;;1.80;99.90;;;;;;5117435;28;20032;-64
2023/12/11 06:24:58;;;;;;;47.55;16.75;;;1.80;99.90;;;;;;5117127;28;20093;-64
2023/12/11 06:27:27;;;;;;;42.95;17.70;;;1.80;99.90;;;;;;5116808;28;20073;-64
2023/12/11 06:29:53;;;;;;;32.17;16.58;;;1.80;99.90;;;;;;5117356;28;20380;-64
2023/12/11 06:32:18;;;;;;;39.88;15.88;;;1.80;99.90;;;;;;5115952;28;20081;-64
2023/12/11 06:34:44;;;;;;;43.80;15.55;;;1.70;99.90;;;;;;5115828;28;20062;-64
2023/12/11 06:37:10;;;;;;;31.35;16.48;;;1.70;99.90;;;;;;5116882;28;20446;-64
2023/12/11 06:39:36;;;;;;;39.58;18.17;;;1.70;99.90;;;;;;5117404;28;20027;-64
2023/12/11 06:42:02;;;;;;;40.13;16.75;;;1.60;99.90;;;;;;5114723;28;20028;-64
2023/12/11 06:44:28;;;;;;;39.13;17.20;;;1.60;99.90;;;;;;5115729;28;20066;-64
2023/12/11 06:46:54;;;;;;;36.60;17.00;;;1.60;99.90;;;;;;5116923;28;20051;-72
2023/12/11 06:49:19;;;;;;;39.53;18.38;;;1.50;99.90;;;;;;5116259;28;20072;-64
2023/12/11 06:51:45;;;;;;;37.85;17.15;;;1.40;99.90;;;;;;5115828;28;20384;-64
2023/12/11 06:54:11;;;;;;;37.47;17.70;;;1.40;99.90;;;;;;5115542;28;20032;-64
2023/12/11 06:56:37;;;;;;;43.35;17.80;;;1.30;99.90;;;;;;5115484;28;20024;-64
2023/12/11 06:59:03;;;;;;;39.42;16.75;;;1.30;99.90;;;;;;5116429;28;20028;-64
2023/12/11 07:01:33;;;;;;;33.83;18.45;;;1.30;99.90;;;;;;5115414;28;20076;-64
2023/12/11 07:03:59;;;;;;;39.88;17.60;;;1.20;99.90;;;;;;5116739;28;20034;-64
2023/12/11 07:06:25;;;;;;;38.35;17.42;;;1.10;99.90;;;;;;5101775;28;20460;-64
2023/12/11 07:08:51;;;;;;;38.80;19.73;;;1.10;99.90;;;;;;5105415;28;20024;-64
2023/12/11 07:11:17;;;;;;;40.92;17.55;;;1.10;99.90;;;;;;5106850;28;20070;-64
2023/12/11 07:13:43;;;;;;;46.00;18.90;;;1.00;99.90;;;;;;5096074;28;20024;-64
2023/12/11 07:16:09;;;;;;;41.80;18.75;;;1.00;99.90;;;;;;5095023;28;20123;-64
2023/12/11 07:18:35;;;;;;;45.28;19.08;;;0.90;99.90;;;;;;5094368;28;20059;-64
2023/12/11 07:21:02;;;;;;;47.35;21.42;;;0.90;99.90;;;;;;5096071;28;20028;-64
2023/12/11 07:23:28;;;;;;;47.70;21.48;;;0.90;99.90;;;;;;5103920;28;20468;-64
2023/12/11 07:25:54;;;;;;;50.80;22.08;;;0.90;99.90;;;;;;5115177;28;20035;-64
2023/12/11 07:28:19;;;;;;;47.15;23.55;;;0.90;99.90;;;;;;5115151;28;20035;-64
2023/12/11 07:30:45;;;;;;;51.67;21.88;;;0.90;99.90;;;;;;5115072;28;20456;-65
2023/12/11 07:33:11;;;;;;;50.53;23.55;;;0.90;99.90;;;;;;5112015;28;20027;-64
2023/12/11 07:35:37;;;;;;;55.88;26.15;;;0.90;99.90;;;;;;5112964;28;20065;-64
2023/12/11 07:38:03;;;;;;;50.10;23.98;;;1.00;99.90;;;;;;5106672;28;20398;-64
2023/12/11 07:40:29;;;;;;;49.67;22.35;;;1.20;99.90;;;;;;5095587;28;20031;-64
2023/12/11 07:42:54;;;;;;;48.65;23.05;;;1.30;99.90;;;;;;5095128;28;20024;-65
2023/12/11 07:45:22;;;;;;;48.42;22.98;;;1.40;99.90;;;;;;5096871;28;20040;-65
2023/12/11 07:47:48;;;;;;;44.47;21.55;;;1.60;99.90;;;;;;5105047;28;20078;-65
2023/12/11 07:50:14;;;;;;;43.17;21.42;;;1.70;99.90;;;;;;5095985;28;20032;-65
2023/12/11 07:52:41;;;;;;;43.70;21.60;;;1.70;99.90;;;;;;5095396;28;20107;-65
2023/12/11 07:55:07;;;;;;;80.22;23.30;;;1.70;99.90;;;;;;5092565;28;20032;-65
2023/12/11 07:57:32;;;;;;;40.40;21.48;;;1.80;99.90;;;;;;5100952;28;20118;-65
2023/12/11 07:59:58;;;;;;;50.15;27.58;;;1.80;99.90;;;;;;5100420;28;20050;-65
2023/12/11 08:02:24;;;;;;;41.67;20.98;;;1.80;99.90;;;;;;5095273;28;20028;-65
2023/12/11 08:04:49;;;;;;;42.67;20.85;;;1.90;99.90;;;;;;5095071;28;20096;-65
2023/12/11 08:07:16;;;;;;;40.83;19.98;;;1.90;99.90;;;;;;5094997;28;20028;-65
2023/12/11 08:09:42;;;;;;;38.75;20.10;;;1.90;99.90;;;;;;5095025;28;20077;-65
2023/12/11 08:12:09;;;;;;;43.58;21.42;;;2.00;99.90;;;;;;5094939;28;20028;-65
2023/12/11 08:14:34;;;;;;;48.20;20.75;;;2.00;99.90;;;;;;5094792;28;20025;-65
2023/12/11 08:17:00;;;;;;;36.08;20.40;;;2.00;99.90;;;;;;5099031;28;20028;-65
2023/12/11 08:19:26;;;;;;;43.35;19.70;;;2.10;99.90;;;;;;5106548;28;20461;-65
2023/12/11 08:21:52;;;;;;;34.63;19.67;;;2.10;99.90;;;;;;5115140;28;20069;-65
2023/12/11 08:24:18;;;;;;;34.75;19.77;;;2.20;99.90;;;;;;5111843;28;20052;-64
2023/12/11 08:26:44;;;;;;;36.97;20.00;;;2.20;99.90;;;;;;5108289;28;20099;-65
2023/12/11 08:29:10;;;;;;;39.22;19.40;;;2.20;99.90;;;;;;5094979;28;20055;-64
2023/12/11 08:31:36;;;;;;;35.17;18.45;;;2.50;99.90;;;;;;5094529;28;20035;-66
2023/12/11 08:34:02;;;;;;;37.97;17.20;;;2.70;99.90;;;;;;5109472;28;20031;-65
2023/12/11 08:36:27;;;;;;;31.23;17.25;;;2.80;99.90;;;;;;5112556;28;20076;-65
2023/12/11 08:38:53;;;;;;;37.83;19.27;;;3.50;99.90;;;;;;5101397;28;20020;-65
2023/12/11 08:41:19;;;;;;;45.35;18.40;;;4.30;99.90;;;;;;5114847;28;20028;-64
2023/12/11 08:43:46;;;;;;;34.88;17.52;;;5.10;99.90;;;;;;5113360;28;20085;-64
2023/12/11 08:46:12;;;;;;;28.08;14.68;;;5.80;99.90;;;;;;5113028;28;20419;-64
2023/12/11 08:48:38;;;;;;;26.20;15.00;;;6.50;99.90;;;;;;5103283;28;20028;-64
2023/12/11 08:51:05;;;;;;;21.05;12.95;;;7.10;99.90;;;;;;5111697;28;20028;-64
2023/12/11 08:53:31;;;;;;;27.45;14.52;;;6.80;99.90;;;;;;5097751;28;20032;-64
2023/12/11 08:55:57;;;;;;;25.13;13.40;;;6.20;99.90;;;;;;5094072;28;20028;-65
2023/12/11 08:58:24;;;;;;;22.67;13.88;;;5.50;99.90;;;;;;5095093;28;20051;-65
2023/12/11 09:00:50;;;;;;;23.40;14.82;;;4.90;99.90;;;;;;5098120;28;20042;-65
2023/12/11 09:03:15;;;;;;;28.80;16.63;;;4.40;99.90;;;;;;5113112;28;20024;-65
2023/12/11 09:05:41;;;;;;;25.20;14.77;;;4.10;99.90;;;;;;5112664;28;20034;-65
2023/12/11 09:08:07;;;;;;;24.58;15.30;;;4.00;99.90;;;;;;5102418;28;20492;-65
2023/12/11 09:10:35;;;;;;;30.20;16.13;;;3.90;99.90;;;;;;5101911;28;20081;-65
2023/12/11 09:13:01;;;;;;;35.05;16.02;;;3.90;99.90;;;;;;5100205;28;20027;-65
2023/12/11 09:15:28;;;;;;;29.20;16.27;;;4.00;99.90;;;;;;5094098;28;20050;-66
2023/12/11 09:17:54;;;;;;;30.80;17.75;;;4.10;99.90;;;;;;5094438;28;20043;-65
2023/12/11 09:20:19;;;;;;;24.33;16.08;;;4.40;99.90;;;;;;5103860;28;20453;-65
2023/12/11 09:22:46;;;;;;;28.70;17.15;;;4.90;99.90;;;;;;5095024;28;20028;-66
2023/12/11 09:25:11;;;;;;;29.42;15.90;;;5.80;99.90;;;;;;5113766;28;20112;-66
2023/12/11 09:27:38;;;;;;;23.67;15.63;;;6.30;99.90;;;;;;5113906;28;20503;-65
2023/12/11 09:30:06;;;;;;;30.67;15.95;;;6.10;99.90;;;;;;5112930;28;20032;-66
2023/12/11 09:32:32;;;;;;;25.55;16.85;;;5.70;99.90;;;;;;5112526;28;20118;-69
2023/12/11 09:34:58;;;;;;;31.83;18.02;;;5.50;99.90;;;;;;5112769;28;20443;-66
2023/12/11 09:37:24;;;;;;;31.25;17.33;;;5.30;99.90;;;;;;5112870;28;20066;-65
2023/12/11 09:39:50;;;;;;;27.10;16.45;;;5.80;99.90;;;;;;5112801;28;20059;-65
2023/12/11 09:42:16;;;;;;;30.30;17.50;;;6.60;99.90;;;;;;5112822;28;20048;-65
2023/12/11 09:44:45;;;;;;;28.55;17.02;;;6.80;99.90;;;;;;5114111;28;20492;-65
2023/12/11 09:47:31;;;;;;;;;;;6.80;99.90;;;;;;5113731;28;20035;-65
2023/12/11 09:49:57;;;;;;;26.58;15.95;;;6.90;99.90;;;;;;5111774;28;19998;-65
2023/12/11 09:52:23;;;;;;;24.80;15.35;;;6.70;99.90;;;;;;5112680;28;20472;-66
2023/12/11 09:54:49;;;;;;;23.67;15.02;;;6.50;99.90;;;;;;5113960;28;20084;-64
2023/12/11 09:57:15;;;;;;;26.13;15.68;;;6.20;99.90;;;;;;5113933;28;20031;-65
2023/12/11 09:59:42;;;;;;;32.03;15.82;;;5.90;99.90;;;;;;5112709;28;20523;-65
2023/12/11 10:02:14;;;;;;;25.98;15.38;;;5.80;99.90;;;;;;5114069;28;20024;-65
2023/12/11 10:05:09;;;;;;;29.08;15.98;;;5.90;99.90;;;;;;5112910;28;20031;-64
2023/12/11 10:07:36;;;;;;;25.13;15.02;;;5.90;99.90;;;;;;5112518;28;20080;-65
2023/12/11 10:10:21;;;;;;;27.70;16.42;;;6.10;99.90;;;;;;5113158;28;20077;-65
2023/12/11 10:12:47;;;;;;;28.50;16.10;;;6.20;99.90;;;;;;5112773;28;20376;-64
2023/12/11 10:15:29;;;;;;;21.92;15.15;;;6.20;99.90;;;;;;5114028;28;20032;-65
2023/12/11 10:18:12;;;;;;;23.98;14.90;;;6.10;99.90;;;;;;5115790;28;20028;-64
2023/12/11 10:20:42;;;;;;;23.40;15.02;;;6.10;99.90;;;;;;5118114;28;20049;-64
2023/12/11 10:23:18;;;;;;;25.52;16.00;;;6.00;99.90;;;;;;5116227;28;20031;-64
2023/12/11 10:25:49;;;;;;;28.80;16.60;;;5.90;99.90;;;;;;5115975;28;20055;-64
2023/12/11 10:28:17;;;;;;;24.63;15.35;;;5.80;99.90;;;;;;5117849;28;20040;-65
2023/12/11 10:30:59;;;;;;;30.60;15.60;;;5.80;99.90;;;;;;5117430;28;20164;-64
2023/12/11 10:33:32;;;;;;;27.15;16.95;;;5.80;99.90;;;;;;5116164;28;20381;-64
2023/12/11 10:36:12;;;;;;;25.20;16.30;;;5.80;99.90;;;;;;5117583;28;20055;-64
2023/12/11 10:38:41;;;;;;;28.38;16.73;;;5.70;99.90;;;;;;5117183;28;20035;-64
2023/12/11 10:41:07;;;;;;;25.88;17.52;;;5.60;99.90;;;;;;5115810;28;20119;-64
2023/12/11 10:43:40;;;;;;;32.20;18.73;;;5.70;99.90;;;;;;5117096;28;20035;-64
2023/12/11 10:46:07;;;;;;;32.72;17.58;;;5.70;99.90;;;;;;5117455;28;20103;-64
2023/12/11 10:48:34;;;;;;;25.50;16.02;;;6.00;99.90;;;;;;5116691;28;20143;-64
2023/12/11 10:51:02;;;;;;;23.23;14.82;;;6.40;99.90;;;;;;5116962;27;20036;-64
2023/12/11 10:53:28;;;;;;;22.10;14.48;;;6.80;99.90;;;;;;5115312;28;20169;-64
2023/12/11 10:55:56;;;;;;;23.25;15.70;;;6.90;99.90;;;;;;5116795;28;20114;-64
2023/12/11 10:58:22;;;;;;;25.50;14.45;;;6.90;99.90;;;;;;5115477;28;20104;-64
2023/12/11 11:00:48;;;;;;;23.60;13.93;;;7.40;99.90;;;;;;5115407;28;20061;-64
2023/12/11 11:03:15;;;;;;;23.45;14.23;;;8.90;99.90;;;;;;5116832;28;20035;-64
2023/12/11 11:05:41;;;;;;;22.63;13.48;;;10.50;99.90;;;;;;5115305;28;20148;-64
2023/12/11 11:08:51;;;;;;;19.13;13.30;;;11.30;99.90;;;;;;5115232;28;20027;-64
2023/12/11 11:11:27;;;;;;;20.67;14.23;;;12.00;99.90;;;;;;5116869;28;20024;-65
2023/12/11 11:14:02;;;;;;;19.23;12.40;;;12.60;99.80;;;;;;5114863;28;20066;-65
2023/12/11 11:16:53;;;;;;;17.95;13.18;;;12.10;98.90;;;;;;5115052;28;20084;-65
2023/12/11 11:19:19;;;;;;;16.10;12.02;;;12.40;99.90;;;;;;5116440;28;20031;-65
2023/12/11 11:22:00;;;;;;;18.50;13.18;;;12.90;98.30;;;;;;5114960;28;20019;-65
2023/12/11 11:24:27;;;;;;;21.85;12.98;;;14.00;97.20;;;;;;5114631;28;20051;-65
2023/12/11 11:26:52;;;;;;;19.48;12.93;;;14.20;95.50;;;;;;5114892;28;20085;-65
2023/12/11 11:29:41;;;;;;;18.10;13.77;;;14.20;94.40;;;;;;5115607;28;20027;-65
2023/12/11 11:32:08;;;;;;;19.88;14.57;;;14.10;94.60;;;;;;5116216;28;20026;-65
2023/12/11 11:34:40;;;;;;;21.13;14.40;;;13.30;95.10;;;;;;5116466;28;20024;-64
2023/12/11 11:37:17;;;;;;;18.35;12.40;;;13.00;96.00;;;;;;5114352;28;20032;-64
2023/12/11 11:40:04;;;;;;;21.73;14.15;;;12.50;96.50;;;;;;5114656;28;20087;-65
2023/12/11 11:42:34;;;;;;;18.05;13.15;;;12.50;97.00;;;;;;5114505;28;20023;-65
2023/12/11 11:45:05;;;;;;;20.63;13.50;;;13.40;96.90;;;;;;5115747;28;20035;-65
2023/12/11 11:47:31;;;;;;;21.63;13.65;;;13.70;94.60;;;;;;5109479;28;20076;-65
2023/12/11 11:50:16;;;;;;;13.93;11.02;;;13.40;95.70;;;;;;5099414;27;20059;-65
2023/12/11 11:52:42;;;;;;;17.85;12.20;;;13.80;94.80;;;;;;5095215;28;20111;-65
2023/12/11 11:55:13;;;;;;;21.98;14.48;;;14.40;93.80;;;;;;5093742;28;20068;-65
2023/12/11 11:57:39;;;;;;;16.92;11.85;;;14.80;92.70;;;;;;5093840;28;20473;-65
2023/12/11 12:00:06;;;;;;;18.90;12.10;;;14.60;92.50;;;;;;5094945;28;20024;-65
2023/12/11 12:02:32;;;;;;;15.55;11.98;;;13.80;92.80;;;;;;5093682;28;20035;-65
2023/12/11 12:05:08;;;;;;;16.92;11.88;;;12.40;94.40;;;;;;5094685;28;20024;-65
2023/12/11 12:07:36;;;;;;;20.80;12.35;;;11.10;96.70;;;;;;5093526;28;20174;-65
2023/12/11 12:10:02;;;;;;;16.60;12.00;;;10.40;99.50;;;;;;5094924;28;20114;-65
2023/12/11 12:12:28;;;;;;;17.88;12.02;;;9.50;99.90;;;;;;5095144;28;20062;-64
2023/12/11 12:15:02;;;;;;;19.70;11.63;;;8.70;99.90;;;;;;5095223;28;20020;-64
2023/12/11 12:17:27;;;;;;;18.23;12.35;;;8.20;99.90;;;;;;5094178;28;20036;-64
2023/12/11 12:19:53;;;;;;;20.23;12.05;;;7.80;99.90;;;;;;5094803;28;20150;-64
2023/12/11 12:22:19;;;;;;;21.15;13.32;;;7.50;99.90;;;;;;5094819;28;20032;-64
2023/12/11 12:24:48;;;;;;;20.92;12.05;;;7.20;99.90;;;;;;5093267;28;20052;-64
2023/12/11 12:27:20;;;;;;;26.05;13.27;;;7.00;99.90;;;;;;5094981;28;20024;-64
2023/12/11 12:29:46;;;;;;;20.88;12.55;;;6.90;99.90;;;;;;5093133;28;20032;-64
2023/12/11 12:32:14;;;;;;;18.88;12.38;;;6.70;99.90;;;;;;5094620;28;20032;-64
2023/12/11 12:34:44;;;;;;;24.60;13.73;;;6.60;99.90;;;;;;5094492;28;20043;-64